Time;durP1;ratioP1;P1;durP2;ratioP2;P2;SDS_P1;SDS_P2;PMS_P1;PMS_P2;Temp;Humidity;BMP_temperature;BMP_pressure;BME280_temperature;BME280_humidity;BME280_pressure;Samples;Min_cycle;Max_cycle;Signal;HPM_P1;HPM_P2
2021/12/14 00:00:18;;;;;;;;;17.33;13.00;;;;;-149.00;100.00;66333.84;5122215;27;45445;-83
2021/12/14 00:02:45;;;;;;;;;17.33;13.33;;;;;-149.00;100.00;66333.84;5123449;27;46105;-83
2021/12/14 00:05:11;;;;;;;;;11.67;11.67;;;;;-149.00;100.00;66333.84;5122563;27;45327;-83
2021/12/14 00:07:37;;;;;;;;;17.67;12.67;;;;;-149.00;100.00;66333.84;5122628;27;45418;-83
2021/12/14 00:13:10;;;;;;;;;15.33;12.67;;;;;-149.00;100.00;66333.84;5107055;27;45920;-83
2021/12/14 00:15:35;;;;;;;;;15.00;13.33;;;;;-149.00;100.00;66333.84;5123608;27;45538;-83
2021/12/14 00:18:06;;;;;;;;;11.00;9.00;;;;;-149.00;100.00;66333.84;5123610;27;45273;-82
2021/12/14 00:20:45;;;;;;;;;7.00;7.00;;;;;-149.00;100.00;66333.84;5122223;27;45973;-82
2021/12/14 00:25:51;;;;;;;;;9.00;9.00;;;;;-149.00;100.00;66333.84;5123508;27;45352;-83
2021/12/14 00:28:24;;;;;;;;;11.67;10.67;;;;;-149.00;100.00;66333.84;5122013;27;45359;-83
2021/12/14 00:30:51;;;;;;;;;15.00;14.67;;;;;-149.00;100.00;66333.84;5123198;27;45318;-82
2021/12/14 00:33:21;;;;;;;;;12.00;9.67;;;;;-149.00;100.00;66333.84;5121673;27;47900;-82
2021/12/14 00:35:46;;;;;;;;;12.67;11.67;;;;;-149.00;100.00;66333.84;5123287;27;45186;-83
2021/12/14 00:38:14;;;;;;;;;12.00;9.33;;;;;-149.00;100.00;66333.84;5122442;27;45226;-83
2021/12/14 00:40:43;;;;;;;;;10.00;9.67;;;;;-149.00;100.00;66333.84;5123250;27;45176;-82
2021/12/14 00:43:09;;;;;;;;;8.33;8.33;;;;;-149.00;100.00;66333.84;5122891;27;47021;-83
2021/12/14 00:45:37;;;;;;;;;14.33;11.00;;;;;-149.00;100.00;66333.84;5121579;27;45315;-82
2021/12/14 00:48:20;;;;;;;;;13.00;10.00;;;;;;;;5114520;27;45665;-83
2021/12/14 00:50:48;;;;;;;;;9.00;7.33;;;;;;;;5116669;27;45275;-82
2021/12/14 00:53:14;;;;;;;;;11.00;8.00;;;;;;;;5118123;27;45348;-83
2021/12/14 00:55:42;;;;;;;;;9.67;9.67;;;;;;;;5116648;27;47110;-82
2021/12/14 00:58:07;;;;;;;;;12.67;11.00;;;;;;;;5116580;27;48174;-83
2021/12/14 01:00:35;;;;;;;;;13.33;12.33;;;;;;;;5116356;27;45368;-82
2021/12/14 01:03:00;;;;;;;;;13.67;9.67;;;;;;;;5118185;27;45293;-82
2021/12/14 01:05:46;;;;;;;;;13.00;12.67;;;;;;;;5117684;27;45185;-83
2021/12/14 01:08:14;;;;;;;;;15.00;12.67;;;;;;;;5116401;27;48338;-83
2021/12/14 01:10:48;;;;;;;;;15.00;10.67;;;;;;;;5116325;27;45337;-82
2021/12/14 01:13:14;;;;;;;;;12.00;9.67;;;;;;;;5117839;27;45172;-83
2021/12/14 01:15:59;;;;;;;;;15.00;15.00;;;;;;;;5116079;27;46023;-83
2021/12/14 01:20:59;;;;;;;;;11.67;11.00;;;;;;;;5117404;27;45346;-83
2021/12/14 01:23:33;;;;;;;;;15.67;13.67;;;;;;;;5117693;27;45427;-83
2021/12/14 01:26:03;;;;;;;;;13.00;12.33;;;;;;;;5115870;27;47212;-83
2021/12/14 01:28:30;;;;;;;;;14.00;13.67;;;;;;;;5117372;27;45391;-83
2021/12/14 01:31:08;;;;;;;;;20.00;18.00;;;;;;;;5117130;27;45368;-83
2021/12/14 01:33:35;;;;;;;;;13.00;12.67;;;;;;;;5115890;27;45269;-83
2021/12/14 01:36:07;;;;;;;;;16.33;15.00;;;;;;;;5115695;27;47123;-83
2021/12/14 01:38:35;;;;;;;;;18.00;16.33;;;;;;;;5115845;27;47933;-83
2021/12/14 01:41:06;;;;;;;;;18.33;15.33;;;;;;;;5122997;27;45352;-83
2021/12/14 01:43:46;;;;;;;;;19.33;17.33;;;;;;;;5136708;27;45246;-83
2021/12/14 01:46:15;;;;;;;;;23.00;20.67;;;;;;;;5137367;27;45300;-83
2021/12/14 01:48:41;;;;;;;;;29.00;23.33;;;;;;;;5136339;27;47004;-83
2021/12/14 01:51:08;;;;;;;;;23.00;20.67;;;;;;;;5136407;27;45171;-83
2021/12/14 01:53:35;;;;;;;;;28.00;25.00;;;;;;;;5138297;27;45710;-83
2021/12/14 01:56:03;;;;;;;;;22.00;19.33;;;;;;;;5136286;27;46378;-83
2021/12/14 01:58:37;;;;;;;;;29.67;27.33;;;;;;;;5130637;27;46510;-83
2021/12/14 02:01:05;;;;;;;;;25.33;25.00;;;;;;;;5122151;27;45358;-83
2021/12/14 02:03:33;;;;;;;;;28.33;26.33;;;;;;;;5123939;27;45214;-83
2021/12/14 02:05:58;;;;;;;;;26.67;24.00;;;;;;;;5123737;27;45449;-83
2021/12/14 02:08:27;;;;;;;;;32.00;26.33;;;;;;;;5122147;27;45932;-83
2021/12/14 02:10:52;;;;;;;;;27.00;23.33;;;;;;;;5123899;27;45365;-83
2021/12/14 02:13:22;;;;;;;;;31.67;28.67;;;;;;;;5123748;27;45781;-84
2021/12/14 02:15:47;;;;;;;;;29.00;28.00;;;;;;;;5122293;27;46005;-83
2021/12/14 02:18:15;;;;;;;;;31.00;26.67;;;;;;;;5122042;27;47193;-82
2021/12/14 02:20:47;;;;;;;;;28.00;25.00;;;;;;;;5123848;27;45288;-83
2021/12/14 02:23:13;;;;;;;;;27.00;21.33;;;;;;;;5122416;27;45312;-83
2021/12/14 02:25:38;;;;;;;;;28.67;26.00;;;;;;;;5121991;27;45923;-83
2021/12/14 02:28:05;;;;;;;;;31.00;28.67;;;;;;;;5123302;27;46472;-83
2021/12/14 02:30:30;;;;;;;;;24.33;23.33;;;;;;;;5123174;27;45277;-83
2021/12/14 02:32:56;;;;;;;;;31.67;30.67;;;;;;;;5122219;27;45466;-83
2021/12/14 02:35:24;;;;;;;;;26.33;22.33;;;;;;;;5123312;27;45381;-83
2021/12/14 02:37:51;;;;;;;;;34.67;30.67;;;;;;;;5121797;27;48224;-83
2021/12/14 02:40:30;;;;;;;;;27.00;27.00;;;;;;;;5121890;27;46124;-83
2021/12/14 02:42:56;;;;;;;;;27.00;25.00;;;;;;;;5082334;27;45440;-83
2021/12/14 02:45:22;;;;;;;;;26.67;25.67;;;;;;;;5080494;28;46077;-83
2021/12/14 02:47:47;;;;;;;;;28.67;25.33;;;;;;;;5081689;27;45396;-83
2021/12/14 02:50:13;;;;;;;;;31.67;27.67;;;;;;;;5080683;28;45276;-83
2021/12/14 02:52:40;;;;;;;;;29.00;25.33;;;;;;;;5082235;28;45298;-83
2021/12/14 02:55:05;;;;;;;;;26.67;22.67;;;;;;;;5081768;28;45535;-83
2021/12/14 02:57:32;;;;;;;;;27.00;26.33;;;;;;;;5080490;28;48147;-83
2021/12/14 02:59:57;;;;;;;;;30.00;24.33;;;;;;;;5081556;28;45224;-83
2021/12/14 03:02:29;;;;;;;;;33.50;30.25;;;;;;;;5080341;28;45369;-83
2021/12/14 03:04:57;;;;;;;;;28.00;21.67;;;;;;;;5081864;28;45422;-83
2021/12/14 03:07:25;;;;;;;;;30.00;28.75;;;;;;;;5080189;28;49239;-83
2021/12/14 03:09:57;;;;;;;;;28.00;24.67;;;;;;;;5079169;28;45300;-83
2021/12/14 03:12:31;;;;;;;;;30.33;28.33;;;;;;;;5081580;28;45351;-83
2021/12/14 03:15:00;;;;;;;;;30.33;28.00;;;;;;;;5081137;28;45320;-83
2021/12/14 03:17:25;;;;;;;;;32.00;31.00;;;;;;;;5080234;28;47375;-83
2021/12/14 03:19:52;;;;;;;;;32.00;28.67;;;;;;;;5081357;28;45314;-83
2021/12/14 03:22:20;;;;;;;;;38.67;30.33;;;;;;;;5080292;28;45396;-83
2021/12/14 03:24:45;;;;;;;;;33.33;29.67;;;;;;;;5081449;28;45290;-83
2021/12/14 03:27:11;;;;;;;;;27.33;22.67;;;;;;;;5079843;28;48309;-83
2021/12/14 03:29:36;;;;;;;;;23.00;22.33;;;;;;;;5081202;28;45320;-83
2021/12/14 03:32:01;;;;;;;;;27.33;22.33;;;;;;;;5081542;28;45284;-83
2021/12/14 03:34:30;;;;;;;;;35.33;28.00;;;;;;;;5081224;28;45370;-83
2021/12/14 03:37:09;;;;;;;;;32.33;26.33;;;;;;;;5080038;28;47129;-83
2021/12/14 03:39:40;;;;;;;;;32.67;29.33;;;;;;;;5079881;28;45342;-83
2021/12/14 03:42:07;;;;;;;;;37.33;30.67;;;;;;;;5081491;28;45239;-83
2021/12/14 03:44:40;;;;;;;;;26.67;24.67;;;;;;;;5079532;28;46330;-84
2021/12/14 03:47:11;;;;;;;;;28.67;27.00;;;;;;;;5079601;28;47106;-83
2021/12/14 03:49:41;;;;;;;;;38.00;33.00;;;;;;;;5080984;28;45281;-83
2021/12/14 03:52:08;;;;;;;;;37.33;32.33;;;;;;;;5079749;28;45283;-83
2021/12/14 03:54:34;;;;;;;;;25.00;24.00;;;;;;;;5080931;28;45498;-83
2021/12/14 03:56:59;;;;;;;;;37.50;27.00;;;;;;;;5079430;28;47252;-83
2021/12/14 03:59:28;;;;;;;;;29.00;27.00;;;;;;;;5080723;28;45297;-83
2021/12/14 04:01:54;;;;;;;;;32.67;30.67;;;;;;;;5080934;27;45171;-83
2021/12/14 04:04:31;;;;;;;;;37.75;31.75;;;;;;;;5079390;28;45710;-83
2021/12/14 04:06:58;;;;;;;;;37.50;32.25;;;;;;;;5079196;28;47207;-83
2021/12/14 04:09:25;;;;;;;;;35.00;32.50;;;;;;;;5080728;27;45293;-83
2021/12/14 04:11:51;;;;;;;;;30.33;29.67;;;;;;;;5079207;28;45325;-83
2021/12/14 04:14:16;;;;;;;;;34.75;31.50;;;;;;;;5080657;28;45208;-84
2021/12/14 04:16:45;;;;;;;;;36.00;31.33;;;;;;;;5079110;28;48249;-83
2021/12/14 04:19:11;;;;;;;;;38.25;32.50;;;;;;;;5079344;28;45267;-83
2021/12/14 04:21:39;;;;;;;;;34.00;31.75;;;;;;;;5080284;28;45307;-83
2021/12/14 04:24:05;;;;;;;;;32.33;28.00;;;;;;;;5079264;28;46424;-83
2021/12/14 04:26:30;;;;;;;;;33.00;31.50;;;;;;;;5080455;28;46545;-83
2021/12/14 04:28:56;;;;;;;;;33.50;31.00;;;;;;;;5080401;27;45254;-83
2021/12/14 04:31:23;;;;;;;;;26.00;25.67;;;;;;;;5079123;28;45201;-83
2021/12/14 04:33:49;;;;;;;;;35.00;31.33;;;;;;;;5079000;28;45889;-83
2021/12/14 04:36:17;;;;;;;;;35.50;32.25;;;;;;;;5080209;28;46424;-83
2021/12/14 04:38:56;;;;;;;;;28.25;27.50;;;;;;;;5079011;28;45333;-83
2021/12/14 04:52:22;;;;;;;;;33.00;30.00;;;;;;;;5080151;28;45405;-83
2021/12/14 04:55:02;;;;;;;;;37.67;32.67;;;;;;;;5080326;28;45156;-83
2021/12/14 04:57:41;;;;;;;;;32.00;28.33;;;;;;;;5078626;28;48258;-83
2021/12/14 05:00:19;;;;;;;;;33.33;28.33;;;;;;;;5079809;28;45276;-84
2021/12/14 05:02:45;;;;;;;;;35.67;31.00;;;;;;;;5079993;28;45480;-83
2021/12/14 05:05:15;;;;;;;;;36.00;29.00;;;;;;;;5078679;28;46487;-83
2021/12/14 05:09:19;;;;;;;;;30.67;29.33;;;;;;;;5079827;28;45408;-83
2021/12/14 05:10:33;;;;;;;;;35.00;29.67;;;;;;;;5079718;28;45263;-83
2021/12/14 05:12:59;;;;;;;;;35.33;31.33;;;;;;;;5080062;28;45289;-83
2021/12/14 05:15:24;;;;;;;;;30.00;28.00;;;;;;;;5078333;28;46156;-83
2021/12/14 05:17:49;;;;;;;;;24.33;24.00;;;;;;;;5078419;28;47582;-83
2021/12/14 05:20:15;;;;;;;;;27.67;27.00;;;;;;;;5078635;28;45605;-83
2021/12/14 05:22:44;;;;;;;;;27.67;22.67;;;;;;;;5078776;28;45413;-83
2021/12/14 05:25:12;;;;;;;;;22.00;20.67;;;;;;;;5079809;28;45286;-83
2021/12/14 05:27:39;;;;;;;;;28.00;26.67;;;;;;;;5079536;28;45739;-83
2021/12/14 05:30:04;;;;;;;;;26.67;22.00;;;;;;;;5078203;28;45321;-83
2021/12/14 05:32:30;;;;;;;;;34.00;31.00;;;;;;;;5079711;28;45236;-83
2021/12/14 05:34:55;;;;;;;;;31.33;28.67;;;;;;;;5082861;28;45346;-83
2021/12/14 05:37:23;;;;;;;;;27.67;24.67;;;;;;;;5083312;28;46481;-83
2021/12/14 05:39:56;;;;;;;;;30.33;27.00;;;;;;;;5083328;28;45149;-81
2021/12/14 05:45:10;;;;;;;;;29.33;28.00;;;;;;;;5082682;28;45302;-83
2021/12/14 05:47:40;;;;;;;;;27.67;25.67;;;;;;;;5081169;28;47366;-84
2021/12/14 05:50:05;;;;;;;;;31.33;28.33;;;;;;;;5083032;28;45278;-82
2021/12/14 05:52:31;;;;;;;;;25.00;21.00;;;;;;;;5082273;28;45348;-83
2021/12/14 05:54:56;;;;;;;;;23.00;22.00;;;;;;;;5082935;28;45262;-82
2021/12/14 05:57:23;;;;;;;;;30.33;27.67;;;;;;;;5082534;28;47893;-81
2021/12/14 05:59:49;;;;;;;;;26.00;24.67;;;;;;;;5082529;28;45289;-81
2021/12/14 06:02:15;;;;;;;;;28.67;24.00;;;;;;;;5082427;28;45213;-81
2021/12/14 06:04:42;;;;;;;;;27.67;27.33;;;;;;;;5081101;28;46700;-81
2021/12/14 06:07:08;;;;;;;;;30.00;27.33;;;;;;;;5081012;28;47239;-81
2021/12/14 06:09:37;;;;;;;;;28.33;28.33;;;;;;;;5081192;28;45274;-81
2021/12/14 06:12:09;;;;;;;;;30.33;27.33;;;;;;;;5082634;28;45282;-80
2021/12/14 06:14:41;;;;;;;;;29.00;25.33;;;;;;;;5080638;28;46104;-79
2021/12/14 06:17:07;;;;;;;;;33.00;28.00;;;;;;;;5082614;28;47578;-79
2021/12/14 06:19:33;;;;;;;;;35.75;31.25;;;;;;;;5083075;27;45381;-80
2021/12/14 06:22:06;;;;;;;;;35.00;30.00;;;;;;;;5082211;28;45306;-79
2021/12/14 06:24:33;;;;;;;;;36.75;32.25;;;;;;;;5080672;28;46086;-79
2021/12/14 06:27:01;;;;;;;;;37.67;31.33;;;;;;;;5081921;28;45367;-80
2021/12/14 06:29:30;;;;;;;;;34.00;32.50;;;;;;;;5081752;28;45293;-80
2021/12/14 06:31:56;;;;;;;;;34.75;32.00;;;;;;;;5080688;28;45283;-80
2021/12/14 06:34:26;;;;;;;;;34.50;32.00;;;;;;;;5080211;28;45961;-80
2021/12/14 06:37:02;;;;;;;;;30.00;28.67;;;;;;;;5078045;28;48394;-81
2021/12/14 06:39:27;;;;;;;;;25.25;20.50;;;;;;;;5081446;28;45344;-79
2021/12/14 06:42:02;;;;;;;;;33.67;28.00;;;;;;;;5108224;27;45203;-80
2021/12/14 06:44:27;;;;;;;;;32.67;26.00;;;;;;;;5121642;27;46526;-80
2021/12/14 06:46:53;;;;;;;;;31.33;28.00;;;;;;;;5121021;27;48343;-80
2021/12/14 06:49:19;;;;;;;;;25.00;25.00;;;;;;;;5122823;27;45183;-81
2021/12/14 06:51:49;;;;;;;;;32.33;24.33;;;;;;;;5121279;27;45390;-80
2021/12/14 06:54:16;;;;;;;;;35.33;28.67;;;;;;;;5121202;27;46308;-80
2021/12/14 06:56:42;;;;;;;;;32.67;27.00;;;;;;;;5120972;27;46940;-81
2021/12/14 06:59:12;;;;;;;;;27.00;23.67;;;;;;;;5122827;27;45202;-82
2021/12/14 07:01:40;;;;;;;;;32.33;27.00;;;;;;;;5122668;27;45343;-82
2021/12/14 07:04:11;;;;;;;;;25.67;24.00;;;;;;;;5122593;27;45533;-82
2021/12/14 07:06:39;;;;;;;;;29.33;29.00;;;;;;;;5121472;27;47131;-83
2021/12/14 07:09:04;;;;;;;;;32.33;19.00;;;;;;;;5121314;27;45959;-82
2021/12/14 07:11:30;;;;;;;;;29.33;28.00;;;;;;;;5121328;27;45346;-83
2021/12/14 07:13:57;;;;;;;;;32.67;28.00;;;;;;;;5121269;27;46886;-81
2021/12/14 07:16:27;;;;;;;;;28.67;26.67;;;;;;;;5122453;27;45430;-83
2021/12/14 07:18:54;;;;;;;;;24.33;23.00;;;;;;;;5122344;27;45271;-83
2021/12/14 07:21:33;;;;;;;;;23.00;21.00;;;;;;;;5121295;27;45305;-80
2021/12/14 07:23:59;;;;;;;;;21.00;19.67;;;;;;;;5122100;27;45547;-81
2021/12/14 07:26:24;;;;;;;;;27.00;22.67;;;;;;;;5120359;27;46985;-81
2021/12/14 07:28:49;;;;;;;;;21.33;19.00;;;;;;;;5120855;27;45974;-80
2021/12/14 07:31:19;;;;;;;;;28.67;26.00;;;;;;;;5120556;27;45229;-80
2021/12/14 07:33:49;;;;;;;;;29.67;27.00;;;;;;;;5120579;27;47325;-81
2021/12/14 07:36:23;;;;;;;;;28.33;26.67;;;;;;;;5121898;27;46641;-80
2021/12/14 07:38:53;;;;;;;;;32.00;29.33;;;;;;;;5121983;27;45345;-80
2021/12/14 07:41:21;;;;;;;;;21.33;20.67;;;;;;;;5113557;27;45485;-81
2021/12/14 07:43:49;;;;;;;;;25.33;25.00;;;;;;;;5099897;27;46405;-82
2021/12/14 07:46:24;;;;;;;;;22.00;22.00;;;;;;;;5101070;27;46692;-82
2021/12/14 07:48:51;;;;;;;;;23.00;21.33;;;;;;;;5100314;27;45179;-83
2021/12/14 07:51:17;;;;;;;;;30.00;23.00;;;;;;;;5101693;27;45315;-82
2021/12/14 07:53:49;;;;;;;;;22.67;21.67;;;;;;;;5101401;27;45265;-82
2021/12/14 07:56:47;;;;;;;;;26.00;22.33;;;;;;;;5099344;27;47193;-82
2021/12/14 07:59:15;;;;;;;;;25.67;23.00;;;;;;;;5077297;27;45318;-82
2021/12/14 08:01:40;;;;;;;;;30.67;29.00;;;;;;;;5099103;27;45530;-82
2021/12/14 08:04:10;;;;;;;;;27.25;24.25;;;;;;;;5099289;27;46108;-81
2021/12/14 08:06:45;;;;;;;;;28.67;23.67;;;;;;;;5101105;27;45518;-82
2021/12/14 08:09:17;;;;;;;;;25.00;20.33;;;;;;;;5101279;27;45193;-83
2021/12/14 08:11:49;;;;;;;;;28.75;28.75;;;;;;;;5099770;27;45368;-82
2021/12/14 08:14:20;;;;;;;;;23.33;23.33;;;;;;;;5100697;27;45300;-81
2021/12/14 08:16:53;;;;;;;;;27.00;21.00;;;;;;;;5100843;27;45315;-81
2021/12/14 08:19:30;;;;;;;;;28.00;23.67;;;;;;;;5100654;27;45365;-82
2021/12/14 08:21:55;;;;;;;;;25.67;23.33;;;;;;;;5100689;27;45168;-80
2021/12/14 08:24:20;;;;;;;;;24.67;24.00;;;;;;;;5097670;27;45973;-81
2021/12/14 08:26:50;;;;;;;;;29.00;28.25;;;;;;;;5099012;27;45659;-80
2021/12/14 08:29:26;;;;;;;;;23.33;22.33;;;;;;;;5100308;27;45340;-81
2021/12/14 08:31:51;;;;;;;;;24.00;23.00;;;;;;;;5100614;27;45242;-81
2021/12/14 08:34:18;;;;;;;;;24.33;22.33;;;;;;;;5081130;27;46977;-81
2021/12/14 08:36:47;;;;;;;;;23.67;21.67;;;;;;;;5078913;28;48563;-80
2021/12/14 08:39:12;;;;;;;;;21.00;20.67;;;;;;;;5078628;28;45343;-80
2021/12/14 08:41:46;;;;;;;;;25.67;25.00;;;;;;;;5091022;27;45480;-80
2021/12/14 08:44:12;;;;;;;;;25.33;22.00;;;;;;;;5100409;27;45652;-80
2021/12/14 08:46:38;;;;;;;;;26.67;23.00;;;;;;;;5098154;27;45652;-81
2021/12/14 08:49:06;;;;;;;;;22.67;21.67;;;;;;;;5099086;27;45363;-80
2021/12/14 08:51:33;;;;;;;;;31.00;24.67;;;;;;;;5100527;27;45234;-81
2021/12/14 08:54:01;;;;;;;;;29.67;25.67;;;;;;;;5100394;27;45518;-80
2021/12/14 08:56:29;;;;;;;;;26.00;23.00;;;;;;;;5100402;27;45346;-81
2021/12/14 08:58:54;;;;;;;;;34.33;23.67;;;;;;;;5098951;27;45356;-81
2021/12/14 09:01:22;;;;;;;;;31.33;27.67;;;;;;;;5098668;27;45411;-80
2021/12/14 09:03:51;;;;;;;;;34.00;32.00;;;;;;;;5100241;27;45222;-80
2021/12/14 09:06:18;;;;;;;;;24.50;23.00;;;;;;;;5100085;27;46533;-80
2021/12/14 09:08:44;;;;;;;;;26.33;26.33;;;;;;;;5100234;27;45308;-81
2021/12/14 09:11:10;;;;;;;;;31.33;28.00;;;;;;;;5102564;27;45352;-80
2021/12/14 09:13:36;;;;;;;;;29.67;27.67;;;;;;;;5102222;27;46900;-81
2021/12/14 09:16:09;;;;;;;;;32.33;30.33;;;;;;;;5102095;27;47017;-81
2021/12/14 09:18:37;;;;;;;;;36.67;32.33;;;;;;;;5102110;27;45335;-81
2021/12/14 09:21:14;;;;;;;;;28.00;24.67;;;;;;;;5101937;27;45344;-81
2021/12/14 09:23:43;;;;;;;;;26.00;24.67;;;;;;;;5102031;27;46346;-80
2021/12/14 09:26:12;;;;;;;;;31.67;27.00;;;;;;;;5101952;27;46983;-81
2021/12/14 09:28:40;;;;;;;;;36.33;27.33;;;;;;;;5103247;27;45258;-80
2021/12/14 09:31:08;;;;;;;;;23.00;22.00;;;;;;;;5103291;27;45292;-79
2021/12/14 09:33:35;;;;;;;;;34.75;29.25;;;;;;;;5103220;27;45323;-80
2021/12/14 09:36:04;;;;;;;;;34.25;31.25;;;;;;;;5103172;27;45700;-79
2021/12/14 09:38:33;;;;;;;;;33.75;30.25;;;;;;;;5101918;27;45281;-81
2021/12/14 09:41:02;;;;;;;;;32.00;29.00;;;;;;;;5097710;27;45399;-81
2021/12/14 09:43:28;;;;;;;;;33.50;30.25;;;;;;;;5081178;28;46239;-80
2021/12/14 09:45:55;;;;;;;;;31.00;28.67;;;;;;;;5080700;28;46521;-81
2021/12/14 09:48:39;;;;;;;;;36.00;32.25;;;;;;;;5082157;27;45320;-80
2021/12/14 09:51:10;;;;;;;;;34.67;31.00;;;;;;;;5081227;28;45257;-83
2021/12/14 09:53:38;;;;;;;;;34.67;30.67;;;;;;;;5081153;28;46930;-81
2021/12/14 09:56:03;;;;;;;;;29.00;28.67;;;;;;;;5080898;27;45944;-82
2021/12/14 09:58:31;;;;;;;;;37.00;30.00;;;;;;;;5082510;28;45156;-80
2021/12/14 10:01:03;;;;;;;;;37.00;32.00;;;;;;;;5082345;28;45259;-80
2021/12/14 10:03:31;;;;;;;;;38.25;32.75;;;;;;;;5082204;27;45256;-80
2021/12/14 10:05:59;;;;;;;;;41.75;34.50;;;;;;;;5080735;28;46325;-81
2021/12/14 10:08:34;;;;;;;;;41.50;32.50;;;;;;;;5080767;28;45296;-81
2021/12/14 10:11:09;;;;;;;;;32.75;30.50;;;;;;;;5080951;27;45421;-81
2021/12/14 10:13:36;;;;;;;;;38.00;32.00;;;;;;;;5080669;28;46893;-81
2021/12/14 10:16:02;;;;;;;;;31.67;27.00;;;;;;;;5081890;27;45380;-82
2021/12/14 10:18:33;;;;;;;;;34.67;27.33;;;;;;;;5080439;28;45295;-80
2021/12/14 10:21:01;;;;;;;;;41.33;34.67;;;;;;;;5080483;27;45339;-81
2021/12/14 10:23:27;;;;;;;;;41.25;34.25;;;;;;;;5082034;27;45242;-81
2021/12/14 10:25:52;;;;;;;;;55.25;44.75;;;;;;;;5080585;28;47290;-81
2021/12/14 10:28:18;;;;;;;;;69.75;54.75;;;;;;;;5082076;27;45213;-80
2021/12/14 10:30:49;;;;;;;;;61.50;48.50;;;;;;;;5080731;28;45299;-80
2021/12/14 10:33:14;;;;;;;;;76.75;62.25;;;;;;;;5080570;28;46134;-80
2021/12/14 10:35:46;;;;;;;;;73.25;55.25;;;;;;;;5081850;27;46382;-81
2021/12/14 10:43:31;;;;;;;;;54.25;44.50;;;;;;;;5102122;27;45286;-80
2021/12/14 10:45:59;;;;;;;;;53.00;43.00;;;;;;;;5100803;27;46282;-80
2021/12/14 10:48:30;;;;;;;;;49.75;39.50;;;;;;;;5100640;27;46213;-79
2021/12/14 10:50:56;;;;;;;;;47.25;38.25;;;;;;;;5100838;27;45305;-79
2021/12/14 10:53:22;;;;;;;;;44.75;33.75;;;;;;;;5100626;27;47235;-79
2021/12/14 10:55:50;;;;;;;;;44.50;34.25;;;;;;;;5100547;27;46600;-79
2021/12/14 10:58:17;;;;;;;;;40.75;36.00;;;;;;;;5100528;27;45352;-80
2021/12/14 11:00:51;;;;;;;;;44.00;36.50;;;;;;;;5102190;27;45309;-79
2021/12/14 11:03:18;;;;;;;;;38.00;34.00;;;;;;;;5102063;27;45389;-79
2021/12/14 11:05:46;;;;;;;;;34.67;29.67;;;;;;;;5101670;27;47322;-79
2021/12/14 11:08:33;;;;;;;;;33.00;28.67;;;;;;;;5102873;27;45329;-79
2021/12/14 11:10:58;;;;;;;;;36.00;30.33;;;;;;;;5103547;27;45357;-79
2021/12/14 11:13:23;;;;;;;;;46.33;35.00;;;;;;;;5103321;27;45353;-78
2021/12/14 11:15:52;;;;;;;;;37.67;33.67;;;;;;;;5102895;27;45258;-79
2021/12/14 11:18:20;;;;;;;;;33.33;31.67;;;;;;;;5102209;27;45316;-79
2021/12/14 11:20:48;;;;;;;;;30.00;29.67;;;;;;;;5100729;27;45196;-79
2021/12/14 11:23:13;;;;;;;;;34.33;30.67;;;;;;;;5100807;27;46501;-80
2021/12/14 11:25:54;;;;;;;;;32.33;30.00;;;;;;;;5100220;27;45548;-78
2021/12/14 11:28:19;;;;;;;;;31.33;29.67;;;;;;;;5100261;27;45368;-81
2021/12/14 11:30:57;;;;;;;;;33.75;30.75;;;;;;;;5099099;27;45488;-80
2021/12/14 11:33:26;;;;;;;;;34.67;31.00;;;;;;;;5100025;27;45393;-81
2021/12/14 11:35:58;;;;;;;;;32.00;28.00;;;;;;;;5101374;27;47868;-78
2021/12/14 11:38:23;;;;;;;;;37.33;29.00;;;;;;;;5099982;27;45327;-78
2021/12/14 11:40:51;;;;;;;;;34.67;28.33;;;;;;;;5096348;27;45325;-79
2021/12/14 11:43:19;;;;;;;;;32.75;29.75;;;;;;;;5080037;28;46692;-81
2021/12/14 11:45:47;;;;;;;;;31.67;30.67;;;;;;;;5079204;28;47403;-81
2021/12/14 11:48:13;;;;;;;;;32.33;29.33;;;;;;;;5079065;28;45488;-82
2021/12/14 11:50:46;;;;;;;;;36.67;31.33;;;;;;;;5079460;28;45554;-82
2021/12/14 11:53:17;;;;;;;;;39.50;33.50;;;;;;;;5080740;27;45332;-81
2021/12/14 11:55:42;;;;;;;;;44.67;36.00;;;;;;;;5078937;28;47445;-80
2021/12/14 11:58:07;;;;;;;;;30.33;29.00;;;;;;;;5084097;28;45703;-78
2021/12/14 12:00:34;;;;;;;;;34.33;31.67;;;;;;;;5083440;27;45144;-79
2021/12/14 12:03:17;;;;;;;;;32.33;30.00;;;;;;;;5082061;27;45496;-78
2021/12/14 12:05:57;;;;;;;;;36.75;33.00;;;;;;;;5080596;28;48856;-79
2021/12/14 12:11:08;;;;;;;;;39.00;33.33;;;;;;;;5081672;28;45299;-78
2021/12/14 12:13:35;;;;;;;;;35.33;31.00;;;;;;;;5079281;28;47142;-79
2021/12/14 12:16:08;;;;;;;;;33.75;31.00;;;;;;;;5081094;27;46460;-79
2021/12/14 12:18:33;;;;;;;;;43.00;34.67;;;;;;;;5080601;27;45353;-80
2021/12/14 12:20:59;;;;;;;;;39.33;32.67;;;;;;;;5079389;28;45460;-79
2021/12/14 12:23:26;;;;;;;;;38.00;33.25;;;;;;;;5078845;28;46220;-79
2021/12/14 12:25:57;;;;;;;;;41.67;35.67;;;;;;;;5080380;27;45334;-80
2021/12/14 12:28:22;;;;;;;;;36.00;32.67;;;;;;;;5078781;28;45525;-79
2021/12/14 12:31:10;;;;;;;;;37.67;32.33;;;;;;;;5078781;28;45244;-79
2021/12/14 12:33:40;;;;;;;;;40.67;34.33;;;;;;;;5080079;27;45457;-79
2021/12/14 12:36:14;;;;;;;;;40.33;34.00;;;;;;;;5079961;28;46283;-79
2021/12/14 12:38:45;;;;;;;;;38.67;31.33;;;;;;;;5078648;28;45272;-79
2021/12/14 12:41:11;;;;;;;;;35.00;31.00;;;;;;;;5087161;27;45259;-79
2021/12/14 12:43:36;;;;;;;;;36.00;33.67;;;;;;;;5100092;27;45452;-79
2021/12/14 12:46:07;;;;;;;;;40.67;32.33;;;;;;;;5098476;27;48158;-79
2021/12/14 12:48:39;;;;;;;;;35.33;33.33;;;;;;;;5100267;27;45370;-79
2021/12/14 12:51:04;;;;;;;;;39.25;34.25;;;;;;;;5099073;27;45412;-79
2021/12/14 12:53:29;;;;;;;;;36.67;32.67;;;;;;;;5098744;27;46189;-79
2021/12/14 12:56:03;;;;;;;;;43.00;34.25;;;;;;;;5098946;27;47296;-79
2021/12/14 12:58:28;;;;;;;;;37.25;33.00;;;;;;;;5098827;27;46230;-79
2021/12/14 13:00:56;;;;;;;;;44.25;38.00;;;;;;;;5098721;27;45364;-79
2021/12/14 13:03:26;;;;;;;;;34.67;30.67;;;;;;;;5100139;27;45349;-79
2021/12/14 13:05:53;;;;;;;;;45.25;36.50;;;;;;;;5100072;27;45416;-79
2021/12/14 13:08:27;;;;;;;;;41.75;35.25;;;;;;;;5100096;27;45301;-79
2021/12/14 13:10:58;;;;;;;;;42.00;34.00;;;;;;;;5098719;27;45289;-79
2021/12/14 13:13:34;;;;;;;;;31.00;29.67;;;;;;;;5098468;27;45364;-79
2021/12/14 13:16:00;;;;;;;;;37.25;33.00;;;;;;;;5098519;27;47010;-79
2021/12/14 13:18:29;;;;;;;;;37.00;32.67;;;;;;;;5098670;27;45344;-78
2021/12/14 13:20:56;;;;;;;;;35.00;31.00;;;;;;;;5098592;27;45344;-79
2021/12/14 13:23:36;;;;;;;;;32.00;30.33;;;;;;;;5098403;27;45999;-79
2021/12/14 13:26:17;;;;;;;;;33.50;32.25;;;;;;;;5099657;27;46123;-78
2021/12/14 13:28:42;;;;;;;;;35.00;31.67;;;;;;;;5099787;27;45472;-81
2021/12/14 13:31:07;;;;;;;;;40.00;34.00;;;;;;;;5098549;27;45440;-80
2021/12/14 13:33:32;;;;;;;;;29.00;29.00;;;;;;;;5098530;27;45935;-80
2021/12/14 13:35:58;;;;;;;;;43.00;33.00;;;;;;;;5099671;27;45538;-78
2021/12/14 13:38:23;;;;;;;;;33.00;30.67;;;;;;;;5100609;27;45352;-79
2021/12/14 13:40:48;;;;;;;;;33.33;30.00;;;;;;;;5094764;27;45293;-79
2021/12/14 13:43:17;;;;;;;;;31.00;28.33;;;;;;;;5080110;28;45545;-80
2021/12/14 13:45:54;;;;;;;;;49.25;39.75;;;;;;;;5077698;28;47563;-80
2021/12/14 13:48:24;;;;;;;;;49.00;40.25;;;;;;;;5077991;27;45226;-80
2021/12/14 13:50:51;;;;;;;;;43.00;35.75;;;;;;;;5079171;27;45330;-79
2021/12/14 13:53:17;;;;;;;;;36.00;31.33;;;;;;;;5078723;27;45332;-80
2021/12/14 13:55:50;;;;;;;;;41.25;35.00;;;;;;;;5081424;28;46569;-78
2021/12/14 13:58:19;;;;;;;;;39.67;33.67;;;;;;;;5080790;28;45463;-78
2021/12/14 14:00:53;;;;;;;;;41.00;33.00;;;;;;;;5082180;27;45358;-78
2021/12/14 14:03:21;;;;;;;;;33.00;30.67;;;;;;;;5081032;28;46354;-78
2021/12/14 14:05:47;;;;;;;;;34.33;30.67;;;;;;;;5080888;28;47327;-78
2021/12/14 14:08:15;;;;;;;;;34.67;32.00;;;;;;;;5082327;27;45393;-78
2021/12/14 14:10:43;;;;;;;;;31.67;30.00;;;;;;;;5090375;27;45352;-80
2021/12/14 14:13:19;;;;;;;;;28.33;27.00;;;;;;;;5100905;27;46604;-80
2021/12/14 14:15:44;;;;;;;;;40.00;33.00;;;;;;;;5100703;27;47208;-80
2021/12/14 14:18:11;;;;;;;;;35.33;31.33;;;;;;;;5100847;27;45367;-80
2021/12/14 14:20:37;;;;;;;;;34.67;32.67;;;;;;;;5101566;27;45351;-80
2021/12/14 14:23:23;;;;;;;;;44.75;33.00;;;;;;;;5101008;27;45319;-80
2021/12/14 14:25:51;;;;;;;;;38.67;34.33;;;;;;;;5100932;27;47598;-80
2021/12/14 14:28:28;;;;;;;;;38.67;33.33;;;;;;;;5100938;27;45310;-80
2021/12/14 14:30:54;;;;;;;;;45.00;36.25;;;;;;;;5100931;27;45421;-80
2021/12/14 14:33:21;;;;;;;;;40.67;33.67;;;;;;;;5100797;27;47277;-80
2021/12/14 14:36:02;;;;;;;;;36.67;33.00;;;;;;;;5100729;27;48391;-80
2021/12/14 14:38:28;;;;;;;;;33.67;29.33;;;;;;;;5100298;27;45286;-79
2021/12/14 14:40:55;;;;;;;;;33.67;29.33;;;;;;;;5102265;27;45217;-80
2021/12/14 14:43:20;;;;;;;;;35.33;31.33;;;;;;;;5102277;27;45216;-80